Amanda Park, Washington
Current Conditions -  °F | °C
As of 11:53 AM on Sunday 25 Jan 2015 (Local Time) from KHQM Reporting Station
Haze Haze  
Wind Chill: 55°   Ceiling: Unl
Heat Index: 55°   Visibility: 6mi
Dew Point: 53°   Wind: 12mph
Humidity: 93%   Direction: 80°E
Pressure: 30.11"   Gusts: NA
Location:  47.46°N, 123.89°W
Report Text: KHQM 251953Z AUTO 08010KT 6SM BR CLR 13/12 A3011 RMK AO2 SLP199 T01280117
Loading
Personal Weather Stations






























Interactive Weather Map New forecast layout! Learn more

10-Day Weather Forecast

Advertisements
Track Severe Weather on mobile